Tapachula International Airport
MMTP : now visible

Airfield :











YOU CAN JOIN US ON...

 
LOGIN :

Register | Disclaimer

   EN    FR    IT 

 









Legend :    VFR   Marginal VFR   IFR   Intensive IFR   Very Intensive IFR
Visi :
Ceiling :
>= 8 km
>= 3000ft
5 to 8 km
1000 to 3000 ft
1500m to 5 km
500 to 1000 ft
800 to 1500m
200 to 500 ft
< 800m
< 200 ft
Symbols :   Thunderstorms  Fog  Heavy snow  Heavy precipitations  Wind > 20 kt






- Airport Elevation : 97 ft
- IATA code : TAP


MMTP - Tapachula International

CURRENT METAR :
  • 250240Z 36004KT 7SM FEW020 SCT070 23/23 A2998 RMK SLP165 52009 905 8/720

EXPIRED METARs :
  • 250140Z 32004KT 7SM -RA FEW040 BKN080 OVC200 23/23 A2995 RMK 8/727
  • 250040Z 11003KT 7SM -RA FEW050 BKN080 OVC200 23/23 A2992 RMK 8/727 HZY

TAF COR TAF MMTP
Valid from the 25 at 00:00 until the 26 at 06:00 UTC


242347Z 2500/2606 04010KT 6SM -RA BKN040CB BKN070
TEMPO 2500/2504 2SM TSRA
FM250500 34005KT P6SM SCT040 BKN080
PROB40 2504/2508 6SM -RA
FM250900 00000KT P6SM SCT040 SCT080
BECMG 2517/2518 23005KT
FM252100 25015KT P6SM VC RA BKN030CB BKN080
PROB40 2523/2603 3SM TSRA OVC020CB
MMFR FIR / North America



MET'MAP, your aeronautical weather chart ! - Copyright ORBIFLY December 2007 - Disclaimer

ORBIFLY MET'MAP TEAM :

Programming & Development : Alexandra Zaïnal
Concept & original design : Baudouin d'Aumeries
Assistance for programming : Marc-Olivier Méhu
Technical & hardware support : Manuel Goepfert

Contact : metmap@orbifly.com




SOURCES & CREDITS :

   NOAA       Earth
Advisory